Cooktown, Kentucky
Current Conditions -  °F | °C
As of 2:55 AM on Wednesday 26 Nov 2014 (Local Time) from KGLW Reporting Station
Clear Clear  
Wind Chill: 29°   Ceiling: Unl
Heat Index: 29°   Visibility: 10mi
Dew Point: 28°   Wind: 0mph
Humidity: 98%   Direction: NA
Pressure: 30.1"   Gusts: NA
Location:  36.8194°N, 85.9936°W
Report Text: KGLW 260855Z AUTO 00000KT 10SM CLR M02/M02 A3010 RMK AO2 T10181021
Loading
Personal Weather Stations






























Interactive Weather Map New forecast layout! Learn more

10-Day Weather Forecast

Advertisements
Track Severe Weather on mobile